CheckWX is a tool to help pilots better visualize weather data.  It is not intended as a substitute for an official pre-flight weather briefing.

14:52:05 UTC

WADD TAF
Ngurah Rai (Bali) International Airport
Denpasar-Bali Island, Indonesia
TAF WADD 231100Z 2312/2412 30010KT 9999 SCT017 TEMPO 2313/2317 5000 -TSRA FEW015CB BKN016

Mar-23@
12:00 UTC

Mar-23 @ 12:00 UTC

Mar-24@
12:00 UTC

Mar-24 @ 12:00 UTC

TAF WADD 231100Z 2312/2412 30010KT 9999 SCT017
Wind
  • 300° at 10 KTS
Cloud Levels
  • Scattered at 1,700' AGL

Mar-23@
13:00 UTC

Mar-23 @ 13:00 UTC

Mar-23@
17:00 UTC

Mar-23 @ 17:00 UTC

TEMPO 2313/2317 5000 -TSRA FEW015CB BKN016

Temporary

Temporary Changes expected for less than half the time period

Conditions
Light Thunderstorm, Light Rain
Cloud Levels
  • Few at 1,500' AGL
  • Broken at 1,600' AGL